Time;durP1;ratioP1;P1;durP2;ratioP2;P2;SDS_P1;SDS_P2;PMS_P1;PMS_P2;Temp;Humidity;BMP_temperature;BMP_pressure;BME280_temperature;BME280_humidity;BME280_pressure;Samples;Min_cycle;Max_cycle;Signal;HPM_P1;HPM_P2
2023/05/04 00:02:09;;;;;;;1.53;0.47;;;;;;;;;;5054270;28;20746;-45
2023/05/04 00:04:37;;;;;;;1.30;0.20;;;;;;;;;;5051752;28;20044;-46
2023/05/04 00:07:05;;;;;;;1.50;0.35;;;;;;;;;;5060868;28;20136;-48
2023/05/04 00:09:34;;;;;;;1.67;0.40;;;;;;;;;;5048526;28;20135;-49
2023/05/04 00:12:02;;;;;;;1.02;0.22;;;;;;;;;;5056463;28;20417;-47
2023/05/04 00:14:29;;;;;;;1.87;0.40;;;;;;;;;;5053213;28;20072;-45
2023/05/04 00:16:57;;;;;;;3.10;0.43;;;;;;;;;;5060018;28;20123;-47
2023/05/04 00:19:25;;;;;;;1.77;0.57;;;;;;;;;;5048198;28;20196;-45
2023/05/04 00:21:52;;;;;;;2.38;0.40;;;;;;;;;;5058572;28;20066;-45
2023/05/04 00:24:20;;;;;;;0.95;0.20;;;;;;;;;;5053511;28;20097;-51
2023/05/04 00:26:49;;;;;;;1.60;0.60;;;;;;;;;;5054924;28;20547;-47
2023/05/04 00:29:17;;;;;;;1.73;0.35;;;;;;;;;;5048993;28;20586;-49
2023/05/04 00:31:44;;;;;;;1.13;0.20;;;;;;;;;;5056861;28;20116;-49
2023/05/04 00:34:12;;;;;;;1.73;0.30;;;;;;;;;;5053755;28;20672;-50
2023/05/04 00:36:41;;;;;;;1.42;0.32;;;;;;;;;;5049509;28;20127;-49
2023/05/04 00:39:09;;;;;;;1.60;0.30;;;;;;;;;;5050458;28;20032;-48
2023/05/04 00:41:37;;;;;;;1.70;0.40;;;;;;;;;;5053732;28;20128;-49
2023/05/04 00:44:06;;;;;;;1.63;0.30;;;;;;;;;;5058476;28;20044;-45
2023/05/04 00:46:33;;;;;;;1.40;0.30;;;;;;;;;;5036790;28;21331;-45
2023/05/04 00:49:01;;;;;;;1.42;0.50;;;;;;;;;;5049890;28;20044;-44
2023/05/04 00:51:30;;;;;;;0.80;0.10;;;;;;;;;;5050441;28;20127;-45
2023/05/04 00:53:58;;;;;;;1.60;0.50;;;;;;;;;;5052324;28;20097;-44
2023/05/04 00:56:26;;;;;;;2.10;0.30;;;;;;;;;;5052334;28;20132;-47
2023/05/04 00:58:56;;;;;;;1.27;0.30;;;;;;;;;;5057543;28;20558;-45
2023/05/04 01:01:26;;;;;;;1.23;0.25;;;;;;;;;;5048123;28;20682;-45
2023/05/04 01:03:55;;;;;;;1.13;0.20;;;;;;;;;;5047002;28;20064;-47
2023/05/04 01:06:28;;;;;;;2.30;0.60;;;;;;;;;;5090672;28;20046;-45
2023/05/04 01:08:58;;;;;;;2.25;0.40;;;;;;;;;;5055946;28;20063;-45
2023/05/04 01:11:27;;;;;;;0.98;0.13;;;;;;;;;;5046361;28;20068;-46
2023/05/04 01:13:56;;;;;;;1.70;0.28;;;;;;;;;;5053051;28;20119;-44
2023/05/04 01:16:24;;;;;;;0.93;0.20;;;;;;;;;;5056559;28;20047;-49
2023/05/04 01:18:53;;;;;;;0.95;0.15;;;;;;;;;;5044042;28;20057;-46
2023/05/04 01:21:20;;;;;;;1.42;0.22;;;;;;;;;;5053489;28;20316;-47
2023/05/04 01:23:50;;;;;;;1.70;0.30;;;;;;;;;;5050499;28;20026;-44
2023/05/04 01:26:22;;;;;;;1.13;0.20;;;;;;;;;;5049794;28;20423;-46
2023/05/04 01:28:53;;;;;;;1.37;0.30;;;;;;;;;;5056090;28;20044;-44
2023/05/04 01:31:22;;;;;;;2.28;0.30;;;;;;;;;;5045377;28;20114;-46
2023/05/04 01:33:51;;;;;;;1.40;0.30;;;;;;;;;;5048214;28;20118;-47
2023/05/04 01:36:20;;;;;;;1.00;0.20;;;;;;;;;;5054833;28;20106;-45
2023/05/04 01:38:48;;;;;;;1.05;0.20;;;;;;;;;;5052654;28;20459;-46
2023/05/04 01:41:16;;;;;;;1.37;0.33;;;;;;;;;;5054845;28;20068;-45
2023/05/04 01:43:44;;;;;;;1.33;0.30;;;;;;;;;;5032122;28;20040;-47
2023/05/04 01:46:12;;;;;;;1.20;0.20;;;;;;;;;;5029305;28;20128;-45
2023/05/04 01:48:39;;;;;;;1.10;0.20;;;;;;;;;;5058464;28;20041;-47
2023/05/04 01:51:07;;;;;;;1.15;0.28;;;;;;;;;;5043710;28;20051;-46
2023/05/04 01:53:35;;;;;;;1.77;0.30;;;;;;;;;;5051598;28;20652;-45
2023/05/04 01:56:03;;;;;;;2.10;0.65;;;;;;;;;;5043738;28;20121;-44
2023/05/04 01:58:32;;;;;;;1.27;0.30;;;;;;;;;;5051363;28;20044;-49
2023/05/04 02:01:00;;;;;;;1.00;0.20;;;;;;;;;;5050795;28;20068;-46
2023/05/04 02:03:27;;;;;;;1.23;0.20;;;;;;;;;;5050525;28;20131;-45
2023/05/04 02:05:55;;;;;;;1.47;0.40;;;;;;;;;;5051641;28;20048;-47
2023/05/04 02:08:23;;;;;;;1.33;0.22;;;;;;;;;;5037467;28;20060;-44
2023/05/04 02:10:51;;;;;;;1.50;0.32;;;;;;;;;;5047785;28;20112;-44
2023/05/04 02:13:19;;;;;;;1.08;0.20;;;;;;;;;;5037763;28;20129;-44
2023/05/04 02:15:48;;;;;;;0.75;0.13;;;;;;;;;;5052318;28;20079;-46
2023/05/04 02:18:15;;;;;;;0.90;0.20;;;;;;;;;;5053003;28;20040;-45
2023/05/04 02:20:43;;;;;;;1.27;0.30;;;;;;;;;;5045305;28;20037;-45
2023/05/04 02:23:11;;;;;;;1.70;0.25;;;;;;;;;;5038372;28;20131;-46
2023/05/04 02:25:39;;;;;;;1.30;0.20;;;;;;;;;;5050213;28;20037;-45
2023/05/04 02:28:06;;;;;;;1.13;0.20;;;;;;;;;;5053648;28;20115;-46
2023/05/04 02:30:34;;;;;;;1.23;0.20;;;;;;;;;;5054329;28;20131;-45
2023/05/04 02:33:03;;;;;;;1.33;0.30;;;;;;;;;;5055225;28;20041;-47
2023/05/04 02:35:31;;;;;;;1.20;0.20;;;;;;;;;;5051790;28;20076;-46
2023/05/04 02:37:58;;;;;;;1.10;0.20;;;;;;;;;;5056405;28;20044;-45
2023/05/04 02:40:26;;;;;;;1.23;0.30;;;;;;;;;;5051859;28;20046;-44
2023/05/04 02:42:54;;;;;;;1.63;0.30;;;;;;;;;;5051140;28;20532;-44
2023/05/04 02:45:22;;;;;;;1.08;0.30;;;;;;;;;;5045802;28;20033;-44
2023/05/04 02:47:50;;;;;;;1.10;0.20;;;;;;;;;;5049091;28;20119;-45
2023/05/04 02:50:19;;;;;;;1.88;0.50;;;;;;;;;;5045969;28;20067;-45
2023/05/04 02:52:47;;;;;;;1.30;0.30;;;;;;;;;;5059845;28;20102;-47
2023/05/04 02:55:14;;;;;;;1.03;0.20;;;;;;;;;;5046982;28;20875;-45
2023/05/04 02:57:42;;;;;;;1.00;0.20;;;;;;;;;;5049313;28;20047;-45
2023/05/04 03:00:10;;;;;;;1.70;0.50;;;;;;;;;;5052620;28;20132;-45
2023/05/04 03:02:38;;;;;;;1.10;0.20;;;;;;;;;;5043998;28;20084;-45
2023/05/04 03:05:06;;;;;;;0.90;0.10;;;;;;;;;;5049799;28;20515;-45
2023/05/04 03:07:35;;;;;;;1.43;0.27;;;;;;;;;;5034930;28;20681;-45
2023/05/04 03:10:03;;;;;;;1.10;0.20;;;;;;;;;;5033970;28;20068;-44
2023/05/04 03:12:31;;;;;;;1.40;0.30;;;;;;;;;;5050896;28;20060;-45
2023/05/04 03:14:59;;;;;;;0.90;0.10;;;;;;;;;;5057799;28;20048;-46
2023/05/04 03:17:27;;;;;;;1.40;0.30;;;;;;;;;;5061869;28;20732;-46
2023/05/04 03:19:55;;;;;;;1.33;0.30;;;;;;;;;;5052194;28;20037;-45
2023/05/04 03:22:22;;;;;;;1.15;0.20;;;;;;;;;;5055401;28;20403;-47
2023/05/04 03:24:53;;;;;;;1.27;0.20;;;;;;;;;;5057678;28;20090;-53
2023/05/04 03:27:21;;;;;;;2.45;0.25;;;;;;;;;;5053511;28;20071;-46
2023/05/04 03:29:48;;;;;;;0.90;0.20;;;;;;;;;;5049959;28;20033;-48
2023/05/04 03:32:16;;;;;;;0.83;0.10;;;;;;;;;;5045274;28;20466;-46
2023/05/04 03:34:44;;;;;;;0.90;0.20;;;;;;;;;;5052268;28;20458;-47
2023/05/04 03:37:12;;;;;;;1.45;0.20;;;;;;;;;;5046285;28;20074;-44
2023/05/04 03:39:40;;;;;;;1.25;0.35;;;;;;;;;;5058666;28;20045;-46
2023/05/04 03:42:09;;;;;;;0.98;0.20;;;;;;;;;;5043250;28;20353;-47
2023/05/04 03:44:36;;;;;;;2.07;0.30;;;;;;;;;;5054533;28;20512;-48
2023/05/04 03:47:04;;;;;;;1.55;0.32;;;;;;;;;;5051951;28;20061;-47
2023/05/04 03:49:32;;;;;;;0.90;0.20;;;;;;;;;;5046422;28;20044;-45
2023/05/04 03:51:59;;;;;;;0.98;0.17;;;;;;;;;;5058173;28;20123;-45
2023/05/04 03:54:27;;;;;;;1.65;0.20;;;;;;;;;;5054845;28;20060;-46
2023/05/04 03:56:55;;;;;;;1.27;0.30;;;;;;;;;;5053888;28;20071;-46
2023/05/04 03:59:24;;;;;;;2.00;0.30;;;;;;;;;;5086810;28;20057;-46
2023/05/04 04:01:51;;;;;;;1.50;0.20;;;;;;;;;;5057750;28;20032;-48
2023/05/04 04:04:19;;;;;;;2.08;0.30;;;;;;;;;;5053263;28;20049;-47
2023/05/04 04:06:47;;;;;;;1.17;0.28;;;;;;;;;;5056661;28;20479;-46
2023/05/04 04:09:15;;;;;;;1.07;0.20;;;;;;;;;;5054824;28;20071;-44
2023/05/04 04:11:42;;;;;;;1.08;0.20;;;;;;;;;;5049575;28;20110;-46
2023/05/04 04:14:10;;;;;;;1.30;0.25;;;;;;;;;;5053993;28;20115;-45
2023/05/04 04:16:39;;;;;;;1.00;0.20;;;;;;;;;;5052952;28;20072;-47
2023/05/04 04:19:06;;;;;;;1.25;0.25;;;;;;;;;;5047416;28;20057;-44
2023/05/04 04:21:34;;;;;;;1.13;0.33;;;;;;;;;;5058542;28;20131;-46
2023/05/04 04:24:02;;;;;;;1.13;0.20;;;;;;;;;;5057134;28;20566;-44
2023/05/04 04:26:30;;;;;;;0.80;0.10;;;;;;;;;;5052709;28;20473;-48
2023/05/04 04:28:58;;;;;;;2.40;0.60;;;;;;;;;;5048805;28;20072;-46
2023/05/04 04:31:25;;;;;;;1.05;0.20;;;;;;;;;;5051641;28;20083;-46
2023/05/04 04:33:54;;;;;;;1.00;0.13;;;;;;;;;;5053816;28;20076;-44
2023/05/04 04:36:22;;;;;;;1.20;0.20;;;;;;;;;;5050386;28;20040;-46
2023/05/04 04:38:50;;;;;;;1.60;0.40;;;;;;;;;;5055309;28;20115;-46
2023/05/04 04:41:18;;;;;;;1.00;0.20;;;;;;;;;;5055031;28;20127;-46
2023/05/04 04:43:46;;;;;;;0.95;0.13;;;;;;;;;;5041417;28;20076;-44
2023/05/04 04:46:14;;;;;;;1.40;0.30;;;;;;;;;;5053944;28;20560;-46
2023/05/04 04:48:42;;;;;;;1.23;0.30;;;;;;;;;;5083006;28;20033;-45
2023/05/04 04:51:11;;;;;;;0.90;0.17;;;;;;;;;;5053770;28;20556;-44
2023/05/04 04:53:38;;;;;;;1.20;0.22;;;;;;;;;;5058352;28;20037;-47
2023/05/04 04:56:08;;;;;;;2.95;0.50;;;;;;;;;;5056095;28;20063;-46
2023/05/04 04:58:36;;;;;;;0.90;0.10;;;;;;;;;;5052684;28;20117;-46
2023/05/04 05:01:04;;;;;;;1.13;0.20;;;;;;;;;;5051574;28;20067;-46
2023/05/04 05:03:32;;;;;;;3.90;0.47;;;;;;;;;;5056867;28;20486;-45
2023/05/04 05:06:01;;;;;;;1.10;0.20;;;;;;;;;;5047223;28;20048;-46
2023/05/04 05:08:32;;;;;;;0.80;0.10;;;;;;;;;;5048558;28;20462;-46
2023/05/04 05:11:00;;;;;;;1.17;0.33;;;;;;;;;;5045244;28;20051;-48
2023/05/04 05:13:27;;;;;;;1.20;0.20;;;;;;;;;;5053570;28;20411;-46
2023/05/04 05:15:55;;;;;;;1.45;0.43;;;;;;;;;;5053048;28;20203;-46
2023/05/04 05:18:23;;;;;;;1.00;0.20;;;;;;;;;;5048357;28;20032;-49
2023/05/04 05:20:51;;;;;;;0.98;0.20;;;;;;;;;;5053976;28;20043;-45
2023/05/04 05:23:18;;;;;;;0.90;0.20;;;;;;;;;;5052209;28;20182;-47
2023/05/04 05:25:47;;;;;;;1.83;0.17;;;;;;;;;;5058772;28;20055;-47
2023/05/04 05:28:15;;;;;;;0.90;0.20;;;;;;;;;;5096204;27;20181;-47
2023/05/04 05:30:42;;;;;;;1.00;0.20;;;;;;;;;;5054207;28;20622;-48
2023/05/04 05:33:10;;;;;;;1.00;0.20;;;;;;;;;;5051925;28;20048;-48
2023/05/04 05:35:38;;;;;;;1.17;0.20;;;;;;;;;;5044406;28;20068;-48
2023/05/04 05:38:06;;;;;;;1.15;0.32;;;;;;;;;;5054787;28;20040;-46
2023/05/04 05:40:36;;;;;;;1.25;0.32;;;;;;;;;;5045352;28;20111;-47
2023/05/04 05:43:05;;;;;;;0.60;0.10;;;;;;;;;;5068881;28;20078;-45
2023/05/04 05:45:33;;;;;;;1.73;0.40;;;;;;;;;;5049326;28;20055;-45
2023/05/04 05:48:00;;;;;;;0.93;0.20;;;;;;;;;;5052073;28;20506;-45
2023/05/04 05:50:28;;;;;;;0.70;0.10;;;;;;;;;;5053569;28;20414;-45
2023/05/04 05:53:00;;;;;;;1.73;0.30;;;;;;;;;;5051997;28;20078;-46
2023/05/04 05:55:27;;;;;;;0.93;0.15;;;;;;;;;;5055562;28;20127;-44
2023/05/04 05:57:55;;;;;;;0.93;0.20;;;;;;;;;;5053792;28;20040;-45
2023/05/04 06:00:24;;;;;;;1.77;0.37;;;;;;;;;;5050040;28;20086;-48
2023/05/04 06:02:54;;;;;;;1.08;0.30;;;;;;;;;;5048800;28;20430;-46
2023/05/04 06:05:22;;;;;;;1.45;0.47;;;;;;;;;;5047156;28;20048;-47
2023/05/04 06:07:50;;;;;;;1.00;0.20;;;;;;;;;;5056010;28;20078;-47
2023/05/04 06:10:18;;;;;;;0.93;0.20;;;;;;;;;;5047706;28;20116;-46
2023/05/04 06:12:45;;;;;;;0.90;0.20;;;;;;;;;;5056828;28;20033;-45
2023/05/04 06:15:13;;;;;;;1.55;0.57;;;;;;;;;;5050036;28;20056;-46
2023/05/04 06:17:42;;;;;;;1.52;0.55;;;;;;;;;;5038619;28;20111;-49
2023/05/04 06:20:10;;;;;;;0.98;0.15;;;;;;;;;;5042459;28;20052;-48
2023/05/04 06:22:38;;;;;;;1.13;0.43;;;;;;;;;;5051264;28;20092;-49
2023/05/04 06:25:06;;;;;;;1.87;0.30;;;;;;;;;;5047683;28;20152;-48
2023/05/04 06:27:34;;;;;;;1.73;0.40;;;;;;;;;;5064350;28;20048;-45
2023/05/04 06:30:02;;;;;;;0.93;0.20;;;;;;;;;;5040938;28;20410;-48
2023/05/04 06:32:31;;;;;;;1.10;0.20;;;;;;;;;;5051591;28;20036;-46
2023/05/04 06:35:01;;;;;;;1.30;0.30;;;;;;;;;;5047336;28;20139;-46
2023/05/04 06:37:29;;;;;;;1.00;0.20;;;;;;;;;;5057295;28;20095;-45
2023/05/04 06:39:57;;;;;;;2.88;0.50;;;;;;;;;;5035004;28;20114;-46
2023/05/04 06:42:24;;;;;;;1.33;0.45;;;;;;;;;;5038922;28;20041;-46
2023/05/04 06:44:52;;;;;;;2.22;0.65;;;;;;;;;;5042029;28;20047;-45
2023/05/04 06:47:20;;;;;;;1.30;0.22;;;;;;;;;;5054023;28;20124;-45
2023/05/04 06:49:48;;;;;;;0.90;0.10;;;;;;;;;;5047929;28;20040;-47
2023/05/04 06:52:16;;;;;;;1.70;0.55;;;;;;;;;;5057193;28;20064;-46
2023/05/04 06:54:45;;;;;;;1.35;0.52;;;;;;;;;;5046783;28;20036;-45
2023/05/04 06:57:12;;;;;;;1.45;0.30;;;;;;;;;;5059277;28;20037;-46
2023/05/04 06:59:40;;;;;;;1.52;0.28;;;;;;;;;;5049997;28;20090;-48
2023/05/04 07:02:07;;;;;;;1.30;0.20;;;;;;;;;;5052789;28;20068;-49
2023/05/04 07:04:35;;;;;;;1.10;0.20;;;;;;;;;;5050860;28;20475;-47
2023/05/04 07:07:03;;;;;;;1.30;0.20;;;;;;;;;;5054741;28;20037;-45
2023/05/04 07:09:32;;;;;;;1.10;0.20;;;;;;;;;;5047646;28;20098;-46
2023/05/04 07:12:00;;;;;;;3.05;0.52;;;;;;;;;;5054473;28;20124;-46
2023/05/04 07:14:27;;;;;;;1.00;0.23;;;;;;;;;;5060074;28;20045;-46
2023/05/04 07:16:55;;;;;;;1.50;0.25;;;;;;;;;;5053190;28;20032;-45
2023/05/04 07:19:23;;;;;;;1.85;0.40;;;;;;;;;;5050670;28;20430;-47
2023/05/04 07:21:51;;;;;;;1.77;0.20;;;;;;;;;;5092293;28;20029;-46
2023/05/04 07:24:19;;;;;;;1.77;0.47;;;;;;;;;;5055964;28;20076;-49
2023/05/04 07:26:48;;;;;;;3.50;0.50;;;;;;;;;;5055688;28;20593;-49
2023/05/04 07:29:15;;;;;;;1.63;0.32;;;;;;;;;;5075951;28;20041;-47
2023/05/04 07:31:44;;;;;;;1.80;0.40;;;;;;;;;;5049657;28;20037;-45
2023/05/04 07:34:12;;;;;;;1.30;0.22;;;;;;;;;;5057916;28;20410;-46
2023/05/04 07:36:40;;;;;;;1.60;0.38;;;;;;;;;;5048670;28;20044;-45
2023/05/04 07:39:10;;;;;;;0.80;0.10;;;;;;;;;;5046021;28;20099;-46
2023/05/04 07:41:37;;;;;;;1.52;0.30;;;;;;;;;;5049737;28;20076;-45
2023/05/04 07:44:07;;;;;;;2.15;0.55;;;;;;;;;;5057483;28;20051;-45
2023/05/04 07:46:35;;;;;;;2.15;0.43;;;;;;;;;;5049552;28;20051;-48
2023/05/04 07:49:03;;;;;;;1.42;0.25;;;;;;;;;;5060423;28;20056;-46
2023/05/04 07:51:31;;;;;;;2.47;0.83;;;;;;;;;;5053753;28;20116;-46
2023/05/04 07:53:59;;;;;;;1.92;0.52;;;;;;;;;;5058116;28;20045;-46
2023/05/04 07:56:26;;;;;;;1.85;0.50;;;;;;;;;;5062301;28;20068;-46
2023/05/04 07:58:54;;;;;;;1.20;0.20;;;;;;;;;;5055904;28;20072;-49
2023/05/04 08:01:25;;;;;;;2.00;0.45;;;;;;;;;;5046453;28;20453;-45
2023/05/04 08:03:52;;;;;;;1.20;0.23;;;;;;;;;;5052910;28;20037;-50
2023/05/04 08:06:20;;;;;;;2.47;0.52;;;;;;;;;;5059801;28;20078;-45
2023/05/04 08:08:49;;;;;;;2.92;1.10;;;;;;;;;;5052377;28;20036;-45
2023/05/04 08:11:19;;;;;;;2.10;0.30;;;;;;;;;;5046805;28;20068;-46
2023/05/04 08:13:48;;;;;;;1.45;0.32;;;;;;;;;;5053363;28;20058;-45
2023/05/04 08:16:16;;;;;;;1.97;0.50;;;;;;;;;;5057629;28;20454;-45
2023/05/04 08:18:44;;;;;;;1.70;0.30;;;;;;;;;;5048684;28;20064;-46
2023/05/04 08:21:13;;;;;;;1.90;0.40;;;;;;;;;;5047628;28;20391;-46
2023/05/04 08:23:41;;;;;;;2.13;0.85;;;;;;;;;;5050211;28;20032;-47
2023/05/04 08:26:08;;;;;;;1.33;0.28;;;;;;;;;;5057869;28;20047;-47
2023/05/04 08:28:37;;;;;;;2.33;0.57;;;;;;;;;;5042294;28;20071;-46
2023/05/04 08:31:05;;;;;;;1.40;0.38;;;;;;;;;;5051558;28;20048;-47
2023/05/04 08:33:33;;;;;;;2.17;0.50;;;;;;;;;;5048894;28;20043;-46
2023/05/04 08:36:03;;;;;;;1.30;0.30;;;;;;;;;;5056559;28;20323;-51
2023/05/04 08:38:31;;;;;;;1.60;0.70;;;;;;;;;;5042805;28;21076;-45
2023/05/04 08:41:00;;;;;;;1.87;0.37;;;;;;;;;;5054895;28;20044;-46
2023/05/04 08:43:28;;;;;;;2.05;0.50;;;;;;;;;;5056116;28;20115;-45
2023/05/04 08:45:56;;;;;;;1.95;0.60;;;;;;;;;;5054019;28;20072;-45
2023/05/04 08:48:24;;;;;;;1.77;0.50;;;;;;;;;;5052583;28;20041;-45
2023/05/04 08:50:52;;;;;;;1.90;0.57;;;;;;;;;;5052849;28;20046;-46
2023/05/04 08:53:22;;;;;;;3.90;0.87;;;;;;;;;;5053969;28;20416;-48
2023/05/04 08:55:51;;;;;;;1.83;0.35;;;;;;;;;;5056321;28;20093;-47
2023/05/04 08:58:20;;;;;;;1.45;0.30;;;;;;;;;;5058721;28;20119;-46
2023/05/04 09:00:48;;;;;;;2.53;0.70;;;;;;;;;;5075971;28;20097;-51
2023/05/04 09:03:16;;;;;;;2.83;1.10;;;;;;;;;;5053421;28;20056;-49
2023/05/04 09:05:45;;;;;;;3.17;1.03;;;;;;;;;;5049530;28;20090;-48
2023/05/04 09:08:13;;;;;;;2.95;0.50;;;;;;;;;;5054799;28;20051;-45
2023/05/04 09:10:41;;;;;;;1.73;0.40;;;;;;;;;;5043620;28;20542;-45
2023/05/04 09:13:09;;;;;;;3.78;1.10;;;;;;;;;;5057408;28;20066;-46
2023/05/04 09:15:37;;;;;;;2.20;0.80;;;;;;;;;;5083074;28;20536;-45
2023/05/04 09:18:05;;;;;;;2.23;0.63;;;;;;;;;;5049913;28;20095;-46
2023/05/04 09:20:42;;;;;;;1.70;0.52;;;;;;;;;;5056812;28;20040;-45
2023/05/04 09:23:12;;;;;;;2.95;0.77;;;;;;;;;;5046056;28;20136;-47
2023/05/04 09:25:47;;;;;;;2.65;0.75;;;;;;;;;;5061660;28;20054;-46
2023/05/04 09:28:15;;;;;;;2.85;0.82;;;;;;;;;;5045375;28;20568;-45
2023/05/04 09:30:43;;;;;;;2.30;0.50;;;;;;;;;;5053794;28;20055;-47
2023/05/04 09:33:11;;;;;;;1.60;0.35;;;;;;;;;;5047354;28;20074;-47
2023/05/04 09:35:40;;;;;;;2.78;0.77;;;;;;;;;;5046587;28;20053;-45
2023/05/04 09:38:09;;;;;;;1.80;0.50;;;;;;;;;;5050410;28;20036;-47
2023/05/04 09:40:37;;;;;;;2.17;0.60;;;;;;;;;;5052160;28;20064;-46
2023/05/04 09:43:07;;;;;;;2.03;0.47;;;;;;;;;;5051279;28;20115;-46
2023/05/04 09:45:41;;;;;;;1.85;0.60;;;;;;;;;;5056479;28;20064;-45
2023/05/04 09:48:16;;;;;;;1.70;0.50;;;;;;;;;;5077857;28;20874;-45
2023/05/04 09:50:54;;;;;;;1.83;0.38;;;;;;;;;;5057690;28;20119;-47
2023/05/04 09:53:26;;;;;;;1.88;0.60;;;;;;;;;;5052722;28;20040;-45
2023/05/04 09:56:08;;;;;;;2.90;0.73;;;;;;;;;;5056274;28;20131;-48
2023/05/04 09:58:39;;;;;;;2.05;0.38;;;;;;;;;;5055970;28;20120;-45
2023/05/04 10:01:07;;;;;;;3.38;1.10;;;;;;;;;;5083252;28;20042;-46
2023/05/04 10:03:34;;;;;;;2.72;0.60;;;;;;;;;;5057072;28;20040;-47
2023/05/04 10:06:03;;;;;;;3.20;1.13;;;;;;;;;;5048529;28;20090;-46
2023/05/04 10:08:31;;;;;;;2.37;0.73;;;;;;;;;;5044736;28;20513;-48
2023/05/04 10:10:59;;;;;;;2.33;0.68;;;;;;;;;;5055245;28;20138;-48
2023/05/04 10:13:27;;;;;;;2.53;0.57;;;;;;;;;;5050551;28;20032;-45
2023/05/04 10:16:06;;;;;;;2.83;0.50;;;;;;;;;;5058538;28;20040;-48
2023/05/04 10:18:40;;;;;;;2.80;0.52;;;;;;;;;;5052207;28;20033;-49
2023/05/04 10:21:18;;;;;;;2.83;0.63;;;;;;;;;;5051854;28;20064;-46
2023/05/04 10:23:52;;;;;;;2.00;0.60;;;;;;;;;;5039875;28;20034;-47
2023/05/04 10:26:30;;;;;;;3.00;0.82;;;;;;;;;;5056991;28;20068;-48
2023/05/04 10:29:05;;;;;;;2.17;0.55;;;;;;;;;;5044922;28;20481;-46
2023/05/04 10:31:38;;;;;;;1.95;0.60;;;;;;;;;;5049038;28;20123;-45
2023/05/04 10:34:06;;;;;;;2.20;0.70;;;;;;;;;;5052469;28;20251;-45
2023/05/04 10:36:36;;;;;;;2.47;0.93;;;;;;;;;;5048041;28;20463;-45
2023/05/04 10:39:04;;;;;;;2.30;0.82;;;;;;;;;;5047388;28;20410;-45
2023/05/04 10:41:32;;;;;;;3.17;0.80;;;;;;;;;;5050115;28;20119;-45
2023/05/04 10:44:03;;;;;;;2.60;0.60;;;;;;;;;;5049942;28;20515;-46
2023/05/04 10:46:31;;;;;;;4.27;1.93;;;;;;;;;;5043236;28;20163;-46
2023/05/04 10:49:00;;;;;;;1.98;0.50;;;;;;;;;;5056222;28;20046;-46
2023/05/04 10:51:28;;;;;;;2.08;0.45;;;;;;;;;;5049073;28;20041;-45
2023/05/04 10:54:17;;;;;;;1.90;0.43;;;;;;;;;;5047383;28;20105;-46
2023/05/04 10:56:45;;;;;;;2.20;0.60;;;;;;;;;;5049371;28;20078;-45
2023/05/04 10:59:13;;;;;;;3.57;0.97;;;;;;;;;;5052149;28;20244;-45
2023/05/04 11:01:42;;;;;;;5.63;0.80;;;;;;;;;;5051173;28;20106;-48
2023/05/04 11:04:19;;;;;;;2.78;0.90;;;;;;;;;;5051954;28;20045;-46
2023/05/04 11:06:55;;;;;;;1.83;0.40;;;;;;;;;;5048539;28;20090;-47
2023/05/04 11:09:23;;;;;;;3.40;1.02;;;;;;;;;;5046158;28;20487;-47
2023/05/04 11:11:52;;;;;;;3.37;0.90;;;;;;;;;;5051924;28;20554;-46
2023/05/04 11:14:24;;;;;;;2.40;0.50;;;;;;;;;;5087245;28;20037;-48
2023/05/04 11:16:52;;;;;;;4.13;0.80;;;;;;;;;;5048211;28;20091;-48
2023/05/04 11:19:21;;;;;;;2.58;0.75;;;;;;;;;;5043284;28;20636;-49
2023/05/04 11:21:49;;;;;;;2.38;0.75;;;;;;;;;;5046436;28;20040;-47
2023/05/04 11:24:17;;;;;;;2.43;0.73;;;;;;;;;;5052722;28;20050;-47
2023/05/04 11:26:46;;;;;;;2.67;0.77;;;;;;;;;;5047788;28;20542;-45
2023/05/04 11:29:15;;;;;;;2.25;0.60;;;;;;;;;;5046011;28;20072;-46
2023/05/04 11:31:53;;;;;;;2.00;0.50;;;;;;;;;;5051323;28;20130;-47
2023/05/04 11:34:22;;;;;;;1.80;0.50;;;;;;;;;;5048672;28;20072;-45
2023/05/04 11:36:51;;;;;;;3.73;1.07;;;;;;;;;;5047466;28;20037;-45
2023/05/04 11:39:20;;;;;;;3.58;0.80;;;;;;;;;;5057190;28;20119;-48
2023/05/04 11:41:47;;;;;;;2.80;0.63;;;;;;;;;;5038988;28;20110;-46
2023/05/04 11:44:16;;;;;;;3.00;1.02;;;;;;;;;;5053273;28;20439;-45
2023/05/04 11:46:44;;;;;;;2.83;0.80;;;;;;;;;;5061034;28;20052;-46
2023/05/04 11:49:12;;;;;;;3.33;0.90;;;;;;;;;;5050613;28;20045;-45
2023/05/04 11:51:41;;;;;;;3.60;0.98;;;;;;;;;;5046183;28;20037;-45
2023/05/04 11:54:18;;;;;;;2.95;0.90;;;;;;;;;;5058379;28;20044;-47
2023/05/04 11:56:46;;;;;;;1.77;0.38;;;;;;;;;;5045418;28;20814;-45
2023/05/04 11:59:14;;;;;;;2.58;0.75;;;;;;;;;;5056292;28;20615;-46
2023/05/04 12:01:42;;;;;;;2.93;0.80;;;;;;;;;;5059584;28;20032;-49
2023/05/04 12:04:10;;;;;;;2.65;0.80;;;;;;;;;;5073792;28;20041;-48
2023/05/04 12:06:38;;;;;;;2.30;0.63;;;;;;;;;;5055125;28;20102;-46
2023/05/04 12:09:07;;;;;;;2.75;0.80;;;;;;;;;;5041302;28;20495;-47
2023/05/04 12:11:37;;;;;;;3.38;0.90;;;;;;;;;;5060334;28;20036;-47
2023/05/04 12:14:05;;;;;;;3.10;0.70;;;;;;;;;;5075383;27;20113;-48
2023/05/04 12:16:33;;;;;;;2.60;0.60;;;;;;;;;;5086590;28;20074;-45
2023/05/04 12:19:02;;;;;;;2.75;0.80;;;;;;;;;;5061143;28;20100;-47
2023/05/04 12:21:30;;;;;;;4.35;0.93;;;;;;;;;;5056255;28;20064;-45
2023/05/04 12:23:58;;;;;;;2.88;0.68;;;;;;;;;;5055800;28;20047;-46
2023/05/04 12:26:27;;;;;;;2.50;0.57;;;;;;;;;;5050986;28;20076;-48
2023/05/04 12:28:55;;;;;;;3.65;0.93;;;;;;;;;;5052591;28;20079;-45
2023/05/04 12:31:22;;;;;;;3.75;0.82;;;;;;;;;;5053998;28;20033;-48
2023/05/04 12:33:52;;;;;;;3.70;1.00;;;;;;;;;;5042670;28;20083;-47
2023/05/04 12:36:20;;;;;;;2.90;0.98;;;;;;;;;;5054578;28;20639;-45
2023/05/04 12:38:47;;;;;;;2.80;0.73;;;;;;;;;;5052654;28;20558;-46
2023/05/04 12:41:15;;;;;;;2.63;0.60;;;;;;;;;;5059817;28;20068;-47
2023/05/04 12:43:44;;;;;;;3.28;0.95;;;;;;;;;;5044091;28;20086;-46
2023/05/04 12:46:13;;;;;;;3.67;1.00;;;;;;;;;;5056567;28;20135;-47
2023/05/04 12:48:40;;;;;;;3.50;1.27;;;;;;;;;;5046338;28;20032;-46
2023/05/04 12:51:08;;;;;;;2.33;0.70;;;;;;;;;;5048168;28;20041;-48
2023/05/04 12:53:36;;;;;;;2.78;0.75;;;;;;;;;;5057090;28;20071;-49
2023/05/04 12:56:03;;;;;;;3.10;0.73;;;;;;;;;;5045117;28;20072;-47
2023/05/04 12:58:31;;;;;;;2.85;0.60;;;;;;;;;;5059223;28;20067;-48
2023/05/04 13:01:01;;;;;;;2.28;0.60;;;;;;;;;;5066528;28;20132;-47
2023/05/04 13:03:29;;;;;;;2.33;0.60;;;;;;;;;;5048547;28;20068;-46
2023/05/04 13:05:57;;;;;;;2.80;0.93;;;;;;;;;;5051182;28;20102;-48
2023/05/04 13:08:24;;;;;;;3.08;0.70;;;;;;;;;;5046804;28;20059;-46
2023/05/04 13:10:52;;;;;;;2.83;0.85;;;;;;;;;;5047690;28;20502;-47
2023/05/04 13:13:24;;;;;;;3.28;0.85;;;;;;;;;;5070848;28;20067;-46
2023/05/04 13:15:52;;;;;;;3.20;1.20;;;;;;;;;;5052350;28;20119;-50
2023/05/04 13:18:25;;;;;;;2.50;0.70;;;;;;;;;;5049374;28;20098;-47
2023/05/04 13:20:53;;;;;;;2.97;0.70;;;;;;;;;;5053044;28;20028;-46
2023/05/04 13:23:21;;;;;;;2.35;0.73;;;;;;;;;;5054440;28;20048;-47
2023/05/04 13:25:49;;;;;;;2.92;0.82;;;;;;;;;;5050397;28;20056;-47
2023/05/04 13:28:17;;;;;;;3.30;0.90;;;;;;;;;;5045866;28;20051;-45
2023/05/04 13:30:45;;;;;;;2.60;0.50;;;;;;;;;;5045384;28;20594;-50
2023/05/04 13:33:13;;;;;;;2.58;0.75;;;;;;;;;;5054615;28;20126;-46
2023/05/04 13:35:57;;;;;;;2.88;0.90;;;;;;;;;;5077915;28;20453;-47
2023/05/04 13:38:25;;;;;;;3.65;1.10;;;;;;;;;;5048806;28;20402;-45
2023/05/04 13:40:53;;;;;;;4.17;1.40;;;;;;;;;;5085606;28;20102;-47
2023/05/04 13:43:22;;;;;;;3.35;0.80;;;;;;;;;;5043535;28;21446;-45
2023/05/04 13:45:50;;;;;;;3.47;1.00;;;;;;;;;;5056102;28;20035;-46
2023/05/04 13:48:17;;;;;;;4.05;1.20;;;;;;;;;;5050226;28;20040;-46
2023/05/04 13:50:46;;;;;;;2.45;0.80;;;;;;;;;;5048625;28;20041;-45
2023/05/04 13:53:15;;;;;;;3.03;1.00;;;;;;;;;;5049610;28;20036;-46
2023/05/04 13:55:42;;;;;;;4.03;1.00;;;;;;;;;;5051248;28;20112;-45
2023/05/04 13:58:10;;;;;;;3.47;1.05;;;;;;;;;;5050296;28;20041;-45
2023/05/04 14:00:38;;;;;;;4.32;1.33;;;;;;;;;;5052078;28;20044;-48
2023/05/04 14:03:06;;;;;;;2.55;0.73;;;;;;;;;;5044899;28;20494;-49
2023/05/04 14:05:34;;;;;;;3.93;0.87;;;;;;;;;;5054469;28;20040;-48
2023/05/04 14:08:02;;;;;;;3.20;0.65;;;;;;;;;;5053400;28;20055;-47
2023/05/04 14:10:31;;;;;;;4.03;0.88;;;;;;;;;;5054992;28;20043;-47
2023/05/04 14:13:00;;;;;;;3.47;1.13;;;;;;;;;;5045756;28;20090;-45
2023/05/04 14:15:28;;;;;;;2.90;1.08;;;;;;;;;;5048742;28;20024;-46
2023/05/04 14:17:57;;;;;;;3.60;1.20;;;;;;;;;;5051113;28;20052;-48
2023/05/04 14:20:25;;;;;;;3.03;1.15;;;;;;;;;;5049544;28;20036;-46
2023/05/04 14:22:52;;;;;;;4.75;1.52;;;;;;;;;;5046451;28;20037;-46
2023/05/04 14:25:21;;;;;;;4.00;0.95;;;;;;;;;;5052438;28;20076;-47
2023/05/04 14:27:50;;;;;;;4.25;1.15;;;;;;;;;;5056824;28;20044;-48
2023/05/04 14:30:18;;;;;;;3.83;1.03;;;;;;;;;;5045966;28;20052;-46
2023/05/04 14:32:46;;;;;;;2.83;0.93;;;;;;;;;;5087696;27;20036;-50
2023/05/04 14:35:15;;;;;;;2.92;0.93;;;;;;;;;;5051193;28;20052;-49
2023/05/04 14:37:42;;;;;;;4.57;1.15;;;;;;;;;;5050191;28;20472;-46
2023/05/04 14:40:11;;;;;;;2.25;0.55;;;;;;;;;;5048154;28;20119;-48
2023/05/04 14:42:39;;;;;;;3.63;1.23;;;;;;;;;;5052054;28;20514;-48
2023/05/04 14:45:08;;;;;;;3.08;0.98;;;;;;;;;;5049323;28;20678;-45
2023/05/04 14:47:37;;;;;;;3.65;1.23;;;;;;;;;;5054403;28;20495;-46
2023/05/04 14:50:05;;;;;;;2.78;1.02;;;;;;;;;;5045931;28;20226;-46
2023/05/04 14:52:34;;;;;;;2.10;0.60;;;;;;;;;;5050296;28;20041;-46